Time;durP1;ratioP1;P1;durP2;ratioP2;P2;SDS_P1;SDS_P2;PMS_P1;PMS_P2;Temp;Humidity;BMP_temperature;BMP_pressure;BME280_temperature;BME280_humidity;BME280_pressure;Samples;Min_cycle;Max_cycle;Signal;HPM_P1;HPM_P2
2022/10/18 00:00:28;;;;;;;11.32;9.40;;;;;;;;;;5054284;28;20063;-78
2022/10/18 00:02:54;;;;;;;16.10;11.68;;;;;;;;;;5050654;28;20034;-79
2022/10/18 00:05:20;;;;;;;15.43;10.77;;;;;;;;;;5049603;28;20475;-81
2022/10/18 00:07:46;;;;;;;16.92;10.35;;;;;;;;;;5048695;28;20033;-80
2022/10/18 00:10:12;;;;;;;13.05;10.35;;;;;;;;;;5052990;28;20017;-77
2022/10/18 00:12:41;;;;;;;15.00;10.60;;;;;;;;;;5046865;28;20039;-78
2022/10/18 00:15:08;;;;;;;16.27;11.98;;;;;;;;;;5050289;28;20030;-80
2022/10/18 00:17:35;;;;;;;16.15;10.23;;;;;;;;;;5045318;28;20066;-78
2022/10/18 00:20:01;;;;;;;14.75;10.23;;;;;;;;;;5072402;28;20021;-77
2022/10/18 00:22:27;;;;;;;11.20;9.27;;;;;;;;;;5068451;28;20037;-77
2022/10/18 00:24:53;;;;;;;11.35;9.30;;;;;;;;;;5034851;28;20056;-79
2022/10/18 00:27:19;;;;;;;12.32;8.75;;;;;;;;;;5034848;28;20485;-78
2022/10/18 00:29:45;;;;;;;22.40;10.10;;;;;;;;;;5065235;28;20079;-80
2022/10/18 00:32:12;;;;;;;10.68;8.73;;;;;;;;;;5067958;28;20096;-80
2022/10/18 00:34:41;;;;;;;12.43;9.00;;;;;;;;;;5045344;28;20692;-80
2022/10/18 00:37:08;;;;;;;12.05;9.70;;;;;;;;;;5057861;28;20493;-80
2022/10/18 00:39:34;;;;;;;14.55;10.10;;;;;;;;;;5034610;28;20037;-80
2022/10/18 00:42:00;;;;;;;18.13;11.75;;;;;;;;;;5034145;28;20041;-79
2022/10/18 00:44:26;;;;;;;12.32;9.63;;;;;;;;;;5034198;28;20056;-80
2022/10/18 00:46:54;;;;;;;14.20;9.13;;;;;;;;;;5035077;28;20028;-79
2022/10/18 00:49:21;;;;;;;13.23;9.23;;;;;;;;;;5065103;28;20103;-79
2022/10/18 00:52:04;;;;;;;13.40;9.65;;;;;;;;;;5071296;28;20024;-79
2022/10/18 00:54:31;;;;;;;13.60;9.57;;;;;;;;;;5059842;28;20021;-80
2022/10/18 00:56:58;;;;;;;12.15;9.05;;;;;;;;;;5067829;28;20021;-78
2022/10/18 00:59:24;;;;;;;13.70;9.40;;;;;;;;;;5036274;28;20116;-78
2022/10/18 01:01:50;;;;;;;14.05;9.32;;;;;;;;;;5041134;28;20043;-78
2022/10/18 01:04:17;;;;;;;12.63;9.52;;;;;;;;;;5075179;28;20044;-78
2022/10/18 01:06:53;;;;;;;14.90;9.85;;;;;;;;;;5073788;28;20051;-78
2022/10/18 01:09:27;;;;;;;15.63;10.60;;;;;;;;;;5065254;28;20040;-80
2022/10/18 01:12:24;;;;;;;13.70;9.00;;;;;;;;;;5057849;28;20364;-80
2022/10/18 01:14:59;;;;;;;13.00;7.32;;;;;;;;;;5076671;28;20025;-80
2022/10/18 01:17:36;;;;;;;12.52;9.45;;;;;;;;;;5060140;28;20039;-78
2022/10/18 01:20:14;;;;;;;11.82;8.02;;;;;;;;;;5075734;28;20028;-79
2022/10/18 01:22:50;;;;;;;18.67;11.07;;;;;;;;;;5025139;28;20490;-79
2022/10/18 01:25:32;;;;;;;11.65;8.85;;;;;;;;;;5051667;28;20117;-79
2022/10/18 01:27:58;;;;;;;11.70;8.32;;;;;;;;;;5045634;28;20131;-76
2022/10/18 01:30:27;;;;;;;12.85;8.98;;;;;;;;;;5074013;28;20536;-78
2022/10/18 01:32:56;;;;;;;12.45;8.13;;;;;;;;;;5037724;28;20069;-79
2022/10/18 01:35:26;;;;;;;11.35;8.68;;;;;;;;;;5037796;28;20052;-78
2022/10/18 01:37:55;;;;;;;9.95;7.97;;;;;;;;;;5056599;28;20389;-79
2022/10/18 01:40:21;;;;;;;10.75;7.50;;;;;;;;;;5055393;28;20130;-78
2022/10/18 01:42:48;;;;;;;15.52;8.77;;;;;;;;;;5059762;28;20028;-80
2022/10/18 01:45:18;;;;;;;14.18;7.65;;;;;;;;;;5074848;28;20082;-80
2022/10/18 01:47:45;;;;;;;11.85;7.82;;;;;;;;;;5075340;28;20052;-79
2022/10/18 01:50:11;;;;;;;10.20;6.97;;;;;;;;;;5064706;28;20108;-79
2022/10/18 01:52:47;;;;;;;12.73;7.60;;;;;;;;;;5038919;28;20067;-79
2022/10/18 01:55:14;;;;;;;11.45;7.40;;;;;;;;;;5068096;28;20490;-79
2022/10/18 01:57:42;;;;;;;11.43;7.75;;;;;;;;;;5073657;28;20471;-78
2022/10/18 02:00:26;;;;;;;9.02;7.25;;;;;;;;;;5066713;28;20029;-80
2022/10/18 02:02:55;;;;;;;13.18;8.30;;;;;;;;;;5037691;28;20091;-78
2022/10/18 02:05:29;;;;;;;9.63;8.05;;;;;;;;;;5055216;28;20105;-79
2022/10/18 02:08:13;;;;;;;9.82;7.80;;;;;;;;;;5037554;28;20028;-80
2022/10/18 02:10:39;;;;;;;10.15;7.53;;;;;;;;;;5036661;28;20098;-80
2022/10/18 02:13:06;;;;;;;9.05;7.20;;;;;;;;;;5039662;28;20475;-80
2022/10/18 02:15:37;;;;;;;10.35;7.22;;;;;;;;;;5044006;28;20036;-78
2022/10/18 02:18:07;;;;;;;12.38;7.95;;;;;;;;;;5062784;28;20021;-78
2022/10/18 02:20:35;;;;;;;11.27;8.05;;;;;;;;;;5055075;28;20029;-79
2022/10/18 02:23:01;;;;;;;9.63;7.28;;;;;;;;;;5069790;28;20039;-79
2022/10/18 02:25:29;;;;;;;10.57;7.50;;;;;;;;;;5039649;28;20538;-78
2022/10/18 02:27:56;;;;;;;12.55;8.55;;;;;;;;;;5072896;28;20051;-78
2022/10/18 02:30:23;;;;;;;16.58;11.90;;;;;;;;;;5072165;28;20031;-78
2022/10/18 02:33:04;;;;;;;14.00;10.52;;;;;;;;;;5044847;28;20032;-80
2022/10/18 02:35:35;;;;;;;18.40;11.52;;;;;;;;;;5064712;22;20040;-77
2022/10/18 02:38:02;;;;;;;15.40;9.13;;;;;;;;;;5048886;28;20139;-79
2022/10/18 02:40:37;;;;;;;13.52;7.22;;;;;;;;;;5069686;28;20033;-79
2022/10/18 02:43:05;;;;;;;18.33;11.55;;;;;;;;;;5049826;28;20032;-77
2022/10/18 02:45:32;;;;;;;12.20;7.63;;;;;;;;;;5076180;28;20028;-78
2022/10/18 02:47:58;;;;;;;11.65;7.28;;;;;;;;;;5095073;28;20512;-80
2022/10/18 02:50:24;;;;;;;12.93;7.65;;;;;;;;;;5076481;28;20031;-79
2022/10/18 02:52:53;;;;;;;12.45;7.78;;;;;;;;;;5072874;28;20028;-79
2022/10/18 02:55:19;;;;;;;10.30;7.63;;;;;;;;;;5084601;28;20116;-75
2022/10/18 02:57:45;;;;;;;7.63;6.45;;;;;;;;;;5060862;28;20036;-75
2022/10/18 03:00:12;;;;;;;9.13;6.70;;;;;;;;;;5093954;28;20474;-75
2022/10/18 03:02:38;;;;;;;9.68;7.97;;;;;;;;;;5075482;28;20108;-77
2022/10/18 03:05:04;;;;;;;10.60;7.15;;;;;;;;;;5063034;28;20482;-75
2022/10/18 03:07:30;;;;;;;11.25;8.15;;;;;;;;;;5059220;28;20032;-74
2022/10/18 03:09:56;;;;;;;12.48;7.78;;;;;;;;;;5093508;28;20020;-74
2022/10/18 03:12:23;;;;;;;16.73;8.63;;;;;;;;;;5075148;28;20032;-76
2022/10/18 03:14:49;;;;;;;14.68;8.88;;;;;;;;;;5091083;28;20055;-75
2022/10/18 03:17:15;;;;;;;10.88;7.43;;;;;;;;;;5063595;28;20089;-75
2022/10/18 03:19:41;;;;;;;11.20;8.07;;;;;;;;;;5093136;28;20430;-75
2022/10/18 03:22:07;;;;;;;12.85;8.18;;;;;;;;;;5090986;28;20028;-76
2022/10/18 03:24:33;;;;;;;14.45;7.78;;;;;;;;;;5075170;28;20021;-76
2022/10/18 03:27:00;;;;;;;10.40;7.05;;;;;;;;;;5079748;28;20055;-75
2022/10/18 03:29:26;;;;;;;9.57;7.65;;;;;;;;;;5080268;28;20126;-75
2022/10/18 03:31:52;;;;;;;12.68;7.35;;;;;;;;;;5072885;28;20118;-76
2022/10/18 03:34:18;;;;;;;8.73;6.88;;;;;;;;;;5070932;28;20083;-76
2022/10/18 03:36:44;;;;;;;8.93;6.43;;;;;;;;;;5062206;28;20052;-76
2022/10/18 03:39:11;;;;;;;11.68;7.50;;;;;;;;;;5048487;28;20474;-76
2022/10/18 03:41:37;;;;;;;11.18;7.38;;;;;;;;;;5053183;28;20029;-76
2022/10/18 03:44:03;;;;;;;8.05;6.55;;;;;;;;;;5067876;28;20096;-76
2022/10/18 03:46:29;;;;;;;8.15;6.68;;;;;;;;;;5073225;28;20020;-76
2022/10/18 03:48:55;;;;;;;9.07;7.05;;;;;;;;;;5059764;28;20519;-75
2022/10/18 03:51:21;;;;;;;8.55;6.82;;;;;;;;;;5048976;28;20033;-75
2022/10/18 03:53:47;;;;;;;13.85;7.72;;;;;;;;;;5052603;28;20024;-75
2022/10/18 03:56:13;;;;;;;10.85;7.65;;;;;;;;;;5070293;28;20021;-74
2022/10/18 03:58:39;;;;;;;13.07;8.98;;;;;;;;;;5072889;28;20026;-74
2022/10/18 04:01:06;;;;;;;12.15;7.75;;;;;;;;;;5057807;28;20036;-75
2022/10/18 04:03:32;;;;;;;10.70;6.82;;;;;;;;;;5055725;28;20016;-75
2022/10/18 04:05:59;;;;;;;20.55;11.82;;;;;;;;;;5072837;28;20086;-75
2022/10/18 04:08:25;;;;;;;12.52;9.07;;;;;;;;;;5070618;28;20024;-76
2022/10/18 04:10:52;;;;;;;12.63;7.90;;;;;;;;;;5043459;28;20428;-75
2022/10/18 04:13:20;;;;;;;9.88;7.70;;;;;;;;;;5071033;28;20387;-77
2022/10/18 04:15:46;;;;;;;13.95;8.05;;;;;;;;;;5041135;28;20032;-74
2022/10/18 04:18:12;;;;;;;11.88;8.80;;;;;;;;;;5059990;28;20063;-75
2022/10/18 04:20:42;;;;;;;10.18;7.13;;;;;;;;;;5034699;28;20520;-75
2022/10/18 04:23:08;;;;;;;12.23;7.18;;;;;;;;;;5036695;28;20489;-75
2022/10/18 04:25:34;;;;;;;11.50;7.47;;;;;;;;;;5054962;28;20016;-75
2022/10/18 04:28:00;;;;;;;14.55;9.45;;;;;;;;;;5072537;28;20017;-74
2022/10/18 04:30:26;;;;;;;14.82;8.35;;;;;;;;;;5058258;28;20017;-77
2022/10/18 04:32:55;;;;;;;17.10;9.10;;;;;;;;;;5071924;28;20036;-75
2022/10/18 04:35:23;;;;;;;11.18;8.10;;;;;;;;;;5076364;28;20060;-75
2022/10/18 04:37:49;;;;;;;14.45;9.27;;;;;;;;;;5060812;28;20021;-76
2022/10/18 04:40:15;;;;;;;10.38;7.30;;;;;;;;;;5079952;28;20095;-76
2022/10/18 04:42:41;;;;;;;15.13;8.93;;;;;;;;;;5070386;28;20458;-76
2022/10/18 04:45:08;;;;;;;13.40;9.65;;;;;;;;;;5085950;28;20418;-75
2022/10/18 04:47:34;;;;;;;13.40;8.63;;;;;;;;;;5096498;28;20342;-75
2022/10/18 04:50:00;;;;;;;15.00;8.48;;;;;;;;;;5081040;28;20462;-71
2022/10/18 04:52:26;;;;;;;12.05;8.70;;;;;;;;;;5090511;28;20024;-76
2022/10/18 04:54:52;;;;;;;17.42;11.38;;;;;;;;;;5072466;28;20390;-74
2022/10/18 04:57:18;;;;;;;18.77;12.10;;;;;;;;;;5058610;28;20492;-71
2022/10/18 04:59:44;;;;;;;19.80;15.90;;;;;;;;;;5087958;28;20066;-74
2022/10/18 05:02:10;;;;;;;14.32;8.90;;;;;;;;;;5090102;28;20115;-76
2022/10/18 05:04:36;;;;;;;14.57;8.57;;;;;;;;;;5082662;28;20540;-74
2022/10/18 05:07:04;;;;;;;19.38;9.85;;;;;;;;;;5096347;28;20544;-77
2022/10/18 05:09:30;;;;;;;12.15;7.60;;;;;;;;;;5081901;28;20023;-78
2022/10/18 05:11:56;;;;;;;14.90;11.20;;;;;;;;;;5092136;28;20082;-80
2022/10/18 05:14:22;;;;;;;11.35;8.02;;;;;;;;;;5082045;28;20103;-79
2022/10/18 05:16:48;;;;;;;9.07;7.15;;;;;;;;;;5094855;28;20023;-79
2022/10/18 05:19:15;;;;;;;11.20;7.65;;;;;;;;;;5070335;28;20016;-79
2022/10/18 05:21:41;;;;;;;12.05;8.95;;;;;;;;;;5054625;28;20047;-79
2022/10/18 05:24:07;;;;;;;15.50;10.40;;;;;;;;;;5061596;28;20020;-79
2022/10/18 05:26:33;;;;;;;13.27;8.63;;;;;;;;;;5068273;28;20396;-80
2022/10/18 05:28:59;;;;;;;16.40;10.15;;;;;;;;;;5073377;28;20016;-80
2022/10/18 05:31:25;;;;;;;20.42;11.80;;;;;;;;;;5077749;28;20020;-80
2022/10/18 05:33:51;;;;;;;13.20;9.68;;;;;;;;;;5063745;28;20036;-79
2022/10/18 05:36:17;;;;;;;14.60;9.65;;;;;;;;;;5057837;28;20059;-79
2022/10/18 05:38:44;;;;;;;15.98;9.15;;;;;;;;;;5088680;28;20075;-80
2022/10/18 05:41:11;;;;;;;20.35;13.10;;;;;;;;;;5095649;28;20024;-79
2022/10/18 05:43:38;;;;;;;25.00;15.80;;;;;;;;;;5077826;28;20032;-79
2022/10/18 05:46:04;;;;;;;16.00;10.77;;;;;;;;;;5076834;28;20111;-78
2022/10/18 05:48:30;;;;;;;34.70;20.15;;;;;;;;;;5077224;28;20024;-79
2022/10/18 05:51:00;;;;;;;17.85;11.98;;;;;;;;;;5080981;28;20032;-80
2022/10/18 05:53:26;;;;;;;19.83;10.85;;;;;;;;;;5069306;28;20650;-78
2022/10/18 05:55:52;;;;;;;14.05;9.13;;;;;;;;;;5057944;28;20017;-80
2022/10/18 05:58:18;;;;;;;17.60;13.95;;;;;;;;;;5094094;28;20016;-78
2022/10/18 06:00:44;;;;;;;25.92;16.85;;;;;;;;;;5076797;28;20048;-78
2022/10/18 06:03:10;;;;;;;17.83;12.50;;;;;;;;;;5062829;28;20017;-79
2022/10/18 06:05:36;;;;;;;12.98;9.95;;;;;;;;;;5066197;28;20363;-79
2022/10/18 06:08:02;;;;;;;17.92;14.52;;;;;;;;;;5073713;28;20032;-79
2022/10/18 06:10:28;;;;;;;22.70;14.60;;;;;;;;;;5068441;28;20017;-80
2022/10/18 06:12:54;;;;;;;15.98;12.52;;;;;;;;;;5057219;28;20028;-78
2022/10/18 06:15:21;;;;;;;20.48;11.50;;;;;;;;;;5056864;28;20028;-79
2022/10/18 06:17:47;;;;;;;13.35;9.60;;;;;;;;;;5069455;28;20584;-78
2022/10/18 06:20:13;;;;;;;19.90;14.50;;;;;;;;;;5088788;28;20016;-79
2022/10/18 06:22:39;;;;;;;18.88;13.20;;;;;;;;;;5085513;28;20109;-78
2022/10/18 06:25:05;;;;;;;26.88;16.35;;;;;;;;;;5062820;28;20020;-78
2022/10/18 06:27:33;;;;;;;14.07;10.07;;;;;;;;;;5076309;28;20466;-79
2022/10/18 06:29:59;;;;;;;30.92;20.58;;;;;;;;;;5076440;28;20452;-78
2022/10/18 06:32:25;;;;;;;21.73;14.95;;;;;;;;;;5094926;28;20048;-79
2022/10/18 06:34:51;;;;;;;20.70;12.23;;;;;;;;;;5063135;28;20083;-80
2022/10/18 06:37:17;;;;;;;18.65;12.27;;;;;;;;;;5061903;28;20024;-80
2022/10/18 06:39:43;;;;;;;18.42;11.18;;;;;;;;;;5069257;28;20068;-79
2022/10/18 06:42:09;;;;;;;21.27;12.25;;;;;;;;;;5069527;28;20382;-79
2022/10/18 06:44:35;;;;;;;19.35;11.68;;;;;;;;;;5062570;28;20012;-80
2022/10/18 06:47:01;;;;;;;21.20;14.05;;;;;;;;;;5065176;28;20024;-78
2022/10/18 06:49:27;;;;;;;16.52;13.18;;;;;;;;;;5073932;28;20028;-79
2022/10/18 06:51:54;;;;;;;17.38;12.20;;;;;;;;;;5066749;28;20017;-79
2022/10/18 06:54:20;;;;;;;18.17;10.63;;;;;;;;;;5057926;28;20139;-79
2022/10/18 06:56:46;;;;;;;13.57;8.68;;;;;;;;;;5076644;28;20272;-80
2022/10/18 06:59:12;;;;;;;13.10;8.85;;;;;;;;;;5094224;28;20024;-79
2022/10/18 07:01:38;;;;;;;18.88;12.40;;;;;;;;;;5078708;28;20530;-80
2022/10/18 07:04:04;;;;;;;16.17;11.80;;;;;;;;;;5064154;28;20039;-81
2022/10/18 07:06:30;;;;;;;16.75;10.27;;;;;;;;;;5055978;28;20453;-79
2022/10/18 07:08:56;;;;;;;22.23;11.98;;;;;;;;;;5065749;28;20027;-80
2022/10/18 07:11:24;;;;;;;21.13;11.77;;;;;;;;;;5061861;28;20031;-80
2022/10/18 07:13:50;;;;;;;23.90;17.40;;;;;;;;;;5075775;28;20469;-79
2022/10/18 07:16:17;;;;;;;19.42;11.65;;;;;;;;;;5079586;28;20111;-80
2022/10/18 07:18:44;;;;;;;27.92;12.90;;;;;;;;;;5094002;28;20020;-80
2022/10/18 07:21:12;;;;;;;18.23;11.02;;;;;;;;;;5081453;28;20032;-81
2022/10/18 07:23:42;;;;;;;18.92;12.93;;;;;;;;;;5055826;28;20123;-81
2022/10/18 07:26:16;;;;;;;21.95;13.77;;;;;;;;;;5085284;28;20032;-79
2022/10/18 07:28:42;;;;;;;21.13;12.63;;;;;;;;;;5061355;28;20048;-79
2022/10/18 07:31:09;;;;;;;21.85;12.23;;;;;;;;;;5075627;28;20024;-79
2022/10/18 07:33:39;;;;;;;17.50;12.90;;;;;;;;;;5093121;28;20057;-80
2022/10/18 07:36:06;;;;;;;19.05;13.57;;;;;;;;;;5065974;28;20165;-80
2022/10/18 07:38:32;;;;;;;22.63;15.77;;;;;;;;;;5085025;28;20032;-79
2022/10/18 07:40:59;;;;;;;23.40;16.00;;;;;;;;;;5071961;28;20029;-79
2022/10/18 07:43:25;;;;;;;27.45;16.45;;;;;;;;;;5055680;28;20024;-79
2022/10/18 07:45:52;;;;;;;21.88;13.65;;;;;;;;;;5074682;28;20082;-79
2022/10/18 07:48:18;;;;;;;21.48;12.95;;;;;;;;;;5082366;28;20102;-79
2022/10/18 07:50:44;;;;;;;25.13;13.60;;;;;;;;;;5063485;28;20038;-79
2022/10/18 07:53:10;;;;;;;16.08;11.57;;;;;;;;;;5075187;28;20024;-79
2022/10/18 07:55:36;;;;;;;21.75;15.52;;;;;;;;;;5060783;28;20082;-79
2022/10/18 07:58:02;;;;;;;19.70;14.18;;;;;;;;;;5084477;28;20031;-79
2022/10/18 08:00:28;;;;;;;16.30;12.18;;;;;;;;;;5073535;28;20090;-78
2022/10/18 08:02:57;;;;;;;16.55;11.98;;;;;;;;;;5086521;28;20029;-81
2022/10/18 08:05:24;;;;;;;19.45;13.52;;;;;;;;;;5055076;28;20120;-80
2022/10/18 08:07:50;;;;;;;15.43;10.52;;;;;;;;;;5078006;28;20024;-79
2022/10/18 08:10:16;;;;;;;13.10;10.10;;;;;;;;;;5063471;28;20025;-79
2022/10/18 08:12:42;;;;;;;20.38;13.32;;;;;;;;;;5072358;28;20049;-79
2022/10/18 08:15:08;;;;;;;16.88;10.93;;;;;;;;;;5093145;28;20016;-79
2022/10/18 08:17:34;;;;;;;17.33;11.88;;;;;;;;;;5060859;28;20024;-79
2022/10/18 08:20:00;;;;;;;20.95;13.60;;;;;;;;;;5067225;28;20016;-79
2022/10/18 08:22:26;;;;;;;27.92;16.45;;;;;;;;;;5068670;28;20040;-79
2022/10/18 08:24:52;;;;;;;18.92;14.23;;;;;;;;;;5068874;28;20017;-79
2022/10/18 08:27:18;;;;;;;18.75;13.50;;;;;;;;;;5066899;28;20032;-79
2022/10/18 08:29:44;;;;;;;15.70;11.85;;;;;;;;;;5074531;28;20024;-79
2022/10/18 08:32:11;;;;;;;19.17;12.73;;;;;;;;;;5074836;28;20377;-79
2022/10/18 08:34:37;;;;;;;14.20;11.23;;;;;;;;;;5072920;28;20533;-79
2022/10/18 08:37:03;;;;;;;16.42;12.15;;;;;;;;;;5055042;28;20048;-80
2022/10/18 08:39:29;;;;;;;20.73;12.07;;;;;;;;;;5073877;28;20038;-80
2022/10/18 08:41:55;;;;;;;15.68;10.00;;;;;;;;;;5063315;28;20040;-79
2022/10/18 08:44:26;;;;;;;13.15;10.20;;;;;;;;;;5058068;28;20016;-79
2022/10/18 08:46:55;;;;;;;18.27;13.30;;;;;;;;;;5074801;28;20031;-79
2022/10/18 08:49:42;;;;;;;18.15;12.68;;;;;;;;;;5089969;28;20020;-80
2022/10/18 08:52:16;;;;;;;23.45;13.93;;;;;;;;;;5066444;28;20021;-84
2022/10/18 08:55:00;;;;;;;19.25;13.40;;;;;;;;;;5087920;28;20063;-81
2022/10/18 08:57:27;;;;;;;19.40;12.73;;;;;;;;;;5085680;28;20521;-81
2022/10/18 08:59:53;;;;;;;23.48;15.98;;;;;;;;;;5059853;28;20028;-82
2022/10/18 09:02:32;;;;;;;19.17;13.57;;;;;;;;;;5081247;28;20033;-81
2022/10/18 09:05:16;;;;;;;23.15;15.13;;;;;;;;;;5054678;28;20025;-82
2022/10/18 09:07:52;;;;;;;26.65;14.93;;;;;;;;;;5068242;28;20363;-83
2022/10/18 09:10:23;;;;;;;21.73;13.98;;;;;;;;;;5079635;22;20053;-74
2022/10/18 09:13:10;;;;;;;22.35;14.23;;;;;;;;;;5070746;28;20153;-76
2022/10/18 09:15:42;;;;;;;28.10;16.95;;;;;;;;;;5071990;28;20025;-77
2022/10/18 09:18:08;;;;;;;21.08;14.88;;;;;;;;;;5070707;28;20016;-77
2022/10/18 09:20:45;;;;;;;27.05;15.30;;;;;;;;;;5073949;28;20085;-76
2022/10/18 09:23:19;;;;;;;19.45;14.18;;;;;;;;;;5075871;28;20024;-75
2022/10/18 09:25:47;;;;;;;24.30;15.25;;;;;;;;;;5075728;28;20024;-76
2022/10/18 09:28:28;;;;;;;20.95;13.65;;;;;;;;;;5072838;28;20020;-76
2022/10/18 09:30:57;;;;;;;22.13;15.73;;;;;;;;;;5054055;28;20025;-74
2022/10/18 09:33:34;;;;;;;24.00;14.45;;;;;;;;;;5055423;28;20036;-77
2022/10/18 09:36:04;;;;;;;19.52;14.18;;;;;;;;;;5053942;28;20025;-75
2022/10/18 09:38:33;;;;;;;19.33;14.18;;;;;;;;;;5055635;28;20023;-72
2022/10/18 09:41:06;;;;;;;17.10;12.02;;;;;;;;;;5054994;28;20029;-72
2022/10/18 09:43:47;;;;;;;18.90;12.02;;;;;;;;;;5055403;28;20065;-75
2022/10/18 09:46:14;;;;;;;18.65;12.10;;;;;;;;;;5054558;28;20048;-78
2022/10/18 09:48:46;;;;;;;14.20;10.65;;;;;;;;;;5053746;28;20028;-74
2022/10/18 09:51:20;;;;;;;12.15;10.75;;;;;;;;;;5054449;28;20479;-74
2022/10/18 09:53:56;;;;;;;17.02;11.45;;;;;;;;;;5054988;28;20040;-77
2022/10/18 09:56:25;;;;;;;11.23;8.68;;;;;;;;;;5054643;28;20017;-73
2022/10/18 09:58:51;;;;;;;14.65;10.40;;;;;;;;;;5055346;28;20051;-76
2022/10/18 10:01:20;;;;;;;14.75;10.30;;;;;;;;;;5054739;28;20134;-76
2022/10/18 10:03:46;;;;;;;13.90;8.10;;;;;;;;;;5055143;28;20029;-77
2022/10/18 10:06:16;;;;;;;9.50;7.22;;;;;;;;;;5054574;28;20562;-74
2022/10/18 10:08:43;;;;;;;12.70;8.80;;;;;;;;;;5056284;28;20037;-74
2022/10/18 10:11:28;;;;;;;13.18;6.82;;;;;;;;;;5074573;28;20351;-75
2022/10/18 10:14:18;;;;;;;9.38;7.25;;;;;;;;;;5063167;28;20471;-77
2022/10/18 10:16:47;;;;;;;11.15;7.20;;;;;;;;;;4992865;28;20034;-79
2022/10/18 10:19:28;;;;;;;10.75;7.25;;;;;;;;;;4993251;28;20038;-77
2022/10/18 10:21:54;;;;;;;;;;;;;;;;;;4993309;28;20045;-77
2022/10/18 10:24:34;;;;;;;11.48;8.48;;;;;;;;;;4993005;28;19905;-79
2022/10/18 10:27:05;;;;;;;9.45;7.82;;;;;;;;;;4992567;28;20023;-75
2022/10/18 10:29:46;;;;;;;15.48;8.18;;;;;;;;;;4992955;28;20030;-74
2022/10/18 10:32:12;;;;;;;;;;;;;;;;;;4992895;28;20026;-75
2022/10/18 10:34:39;;;;;;;8.52;5.93;;;;;;;;;;4992723;28;19905;-75
2022/10/18 10:37:22;;;;;;;9.00;6.22;;;;;;;;;;4992754;28;20065;-75
2022/10/18 10:40:07;;;;;;;10.82;7.22;;;;;;;;;;4992518;28;20034;-74
2022/10/18 10:42:33;;;;;;;9.07;6.63;;;;;;;;;;4992428;28;20046;-73
2022/10/18 10:45:01;;;;;;;9.05;6.97;;;;;;;;;;4992392;28;20057;-74
2022/10/18 10:47:33;;;;;;;12.25;7.10;;;;;;;;;;4992389;28;20038;-73
2022/10/18 10:50:08;;;;;;;11.00;7.40;;;;;;;;;;4992461;28;20038;-73
2022/10/18 10:52:35;;;;;;;13.82;7.03;;;;;;;;;;4995997;28;20030;-73
2022/10/18 10:55:02;;;;;;;14.07;8.13;;;;;;;;;;5074066;28;20471;-74
2022/10/18 10:57:28;;;;;;;12.45;8.68;;;;;;;;;;5073468;28;20027;-74
2022/10/18 10:59:58;;;;;;;10.27;8.35;;;;;;;;;;5073557;28;20030;-74
2022/10/18 11:02:30;;;;;;;12.65;9.43;;;;;;;;;;5073562;28;20500;-73
2022/10/18 11:05:14;;;;;;;10.60;8.50;;;;;;;;;;5073344;28;20024;-73
2022/10/18 11:07:42;;;;;;;10.18;7.35;;;;;;;;;;5073466;28;20025;-74
2022/10/18 11:10:08;;;;;;;10.32;7.68;;;;;;;;;;5072885;28;20556;-74
2022/10/18 11:12:34;;;;;;;11.18;7.93;;;;;;;;;;5073356;28;20032;-74
2022/10/18 11:15:04;;;;;;;10.32;6.85;;;;;;;;;;5073297;28;20025;-74
2022/10/18 11:18:00;;;;;;;8.67;5.90;;;1101.20;819.20;;;;;;5055298;28;20471;-74
2022/10/18 11:20:30;;;;;;;7.85;6.43;;;;;;;;;;5041868;28;20350;-74
2022/10/18 11:22:56;;;;;;;12.07;8.38;;;;;;;;;;5073040;28;20035;-74
2022/10/18 11:25:24;;;;;;;10.82;7.50;;;;;;;;;;5071600;28;20020;-75
2022/10/18 11:28:29;;;;;;;12.07;7.03;;;1049.90;844.80;;;;;;5071724;28;20031;-73
2022/10/18 11:31:04;;;;;;;11.82;8.95;;;;;;;;;;4991343;28;20080;-77
2022/10/18 11:33:37;;;;;;;7.55;6.80;;;;;;;;;;4991578;28;20042;-80
2022/10/18 11:36:14;;;;;;;11.70;7.38;;;1101.70;768.00;;;;;;4991584;28;20401;-79
2022/10/18 11:39:17;;;;;;;11.23;7.05;;;1101.40;768.00;;;;;;4991590;28;20038;-79
2022/10/18 11:41:57;;;;;;;7.85;5.68;;;1101.60;768.00;;;;;;4991185;28;20030;-79
2022/10/18 11:44:43;;;;;;;6.63;6.00;;;1101.20;793.60;;;;;;4991091;28;20042;-80
2022/10/18 11:47:17;;;;;;;13.10;7.00;;;;;;;;;;4991514;28;20031;-79
2022/10/18 11:49:49;;;;;;;8.65;6.80;;;;;;;;;;4991261;28;20497;-75
2022/10/18 11:52:33;;;;;;;12.38;7.75;;;;;;;;;;4990974;28;20140;-75
2022/10/18 11:55:07;;;;;;;6.65;6.05;;;;;;;;;;4991533;28;20496;-74
2022/10/18 11:57:40;;;;;;;8.10;6.80;;;;;;;;;;4991234;28;20047;-74
2022/10/18 12:00:11;;;;;;;8.05;7.07;;;;;;;;;;4974997;28;20038;-75
2022/10/18 12:02:50;;;;;;;11.65;5.82;;;;;;;;;;4974993;28;20070;-75
2022/10/18 12:05:16;;;;;;;6.88;5.93;;;1126.60;742.40;;;;;;4991076;28;20038;-75
2022/10/18 12:08:16;;;;;;;8.57;6.28;;;1126.50;742.40;;;;;;5003778;28;20037;-77
2022/10/18 12:10:48;;;;;;;15.15;10.98;;;1126.90;742.40;;;;;;5062529;28;20068;-75
2022/10/18 12:13:39;;;;;;;7.75;6.75;;;1127.00;768.00;;;;;;5072325;28;20027;-74
2022/10/18 12:16:08;;;;;;;10.88;5.82;;;1127.00;768.00;;;;;;4990953;28;20042;-74
2022/10/18 12:18:41;;;;;;;10.80;5.90;;;1126.60;768.00;;;;;;4991000;28;20092;-74
2022/10/18 12:21:07;;;;;;;8.95;6.07;;;;;;;;;;4990972;28;20139;-74
2022/10/18 12:23:37;;;;;;;9.65;7.18;;;;;;;;;;4990954;28;20023;-77
2022/10/18 12:26:05;;;;;;;10.65;8.43;;;;;;;;;;4990931;28;20041;-74
2022/10/18 12:28:31;;;;;;;10.73;8.82;;;;;;;;;;4990918;28;20038;-75
2022/10/18 12:31:18;;;;;;;10.00;7.18;;;1101.30;793.60;;;;;;4974520;28;20127;-75
2022/10/18 12:33:47;;;;;;;9.93;6.18;;;;;;;;;;4990980;28;20132;-75
2022/10/18 12:36:36;;;;;;;11.57;7.57;;;1101.40;793.60;;;;;;4990707;28;20041;-74
2022/10/18 12:39:04;;;;;;;9.25;5.72;;;;;;;;;;4913903;29;20117;-74
2022/10/18 12:41:33;;;;;;;13.07;8.05;;;1101.10;793.60;;;;;;4913997;29;20044;-75
2022/10/18 12:44:19;;;;;;;11.70;7.50;;;;;;;;;;4914039;29;20032;-75
2022/10/18 12:46:46;;;;;;;9.00;7.07;;;;;;;;;;4898191;29;20319;-79
2022/10/18 12:49:15;;;;;;;13.43;8.73;;;1101.40;742.40;;;;;;4913971;29;20032;-75
2022/10/18 12:52:04;;;;;;;12.10;8.27;;;;;;;;;;4914247;29;20044;-75
2022/10/18 12:54:33;;;;;;;13.13;8.85;;;1100.90;793.60;;;;;;4896836;29;20093;-74
2022/10/18 12:57:00;;;;;;;13.02;8.63;;;;;;;;;;4898790;29;20051;-75
2022/10/18 12:59:26;;;;;;;12.90;8.70;;;;;;;;;;4898629;29;20036;-74
2022/10/18 13:01:52;;;;;;;11.55;8.85;;;;;;;;;;4898746;29;20113;-74
2022/10/18 13:04:44;;;;;;;17.92;9.77;;;;;;;;;;4883142;29;20456;-77
2022/10/18 13:07:10;;;;;;;13.10;9.35;;;;;;;;;;4896186;29;20044;-74
2022/10/18 13:09:40;;;;;;;13.32;9.27;;;;;;;;;;4898268;29;20052;-75
2022/10/18 13:12:06;;;;;;;;;;;;;;;;;;4898707;29;20076;-74
2022/10/18 13:14:52;;;;;;;10.73;8.07;;;;;;;;;;4898635;29;19961;-74
2022/10/18 13:17:29;;;;;;;12.32;9.75;;;;;;;;;;4955465;29;20557;-74
2022/10/18 13:20:01;;;;;;;11.98;8.73;;;;;;;;;;4939250;29;20031;-74
2022/10/18 13:22:30;;;;;;;15.00;9.07;;;;;;;;;;4939264;28;20457;-74
2022/10/18 13:25:00;;;;;;;11.52;8.57;;;;;;;;;;4939190;29;20118;-75
2022/10/18 13:27:46;;;;;;;12.98;8.85;;;;;;;;;;4955190;29;20094;-74
2022/10/18 13:30:31;;;;;;;13.07;10.07;;;;;;;;;;4938805;29;20149;-74
2022/10/18 13:32:57;;;;;;;12.88;9.80;;;;;;;;;;5075214;28;20471;-74
2022/10/18 13:35:41;;;;;;;10.85;7.80;;;;;;;;;;5075161;28;20027;-75
2022/10/18 13:38:27;;;;;;;9.48;7.15;;;;;;;;;;5063276;28;20024;-74
2022/10/18 13:41:01;;;;;;;10.45;8.45;;;;;;;;;;5075010;28;20036;-75
2022/10/18 13:43:46;;;;;;;13.80;9.20;;;;;;;;;;5074999;28;20036;-74
2022/10/18 13:46:12;;;;;;;14.15;9.07;;;;;;;;;;5074786;28;20036;-75
2022/10/18 13:48:38;;;;;;;14.93;10.02;;;;;;;;;;5074886;28;20043;-78
2022/10/18 13:51:16;;;;;;;14.85;11.38;;;;;;;;;;5074883;28;20108;-77
2022/10/18 13:53:51;;;;;;;16.55;11.48;;;;;;;;;;5074934;28;20044;-74
2022/10/18 13:56:31;;;;;;;13.73;10.10;;;;;;;;;;5074633;28;20520;-73
2022/10/18 13:58:57;;;;;;;15.25;12.32;;;;;;;;;;5056838;28;20028;-74
2022/10/18 14:01:32;;;;;;;14.45;11.50;;;;;;;;;;5074645;28;20020;-74
2022/10/18 14:04:17;;;;;;;15.00;9.27;;;;;;;;;;5056801;28;20023;-74
2022/10/18 14:06:46;;;;;;;11.27;10.07;;;;;;;;;;5073773;28;20145;-74
2022/10/18 14:09:16;;;;;;;14.77;9.98;;;;;;;;;;5074481;28;20076;-74
2022/10/18 14:11:44;;;;;;;13.02;7.97;;;;;;;;;;5073007;28;20039;-74
2022/10/18 14:14:35;;;;;;;15.43;10.43;;;;;;;;;;5074940;28;20107;-76
2022/10/18 14:17:01;;;;;;;21.27;13.57;;;;;;;;;;5067047;28;20064;-75
2022/10/18 14:19:39;;;;;;;13.75;8.90;;;;;;;;;;5074482;28;20031;-74
2022/10/18 14:22:26;;;;;;;15.30;10.65;;;;;;;;;;5074541;28;20036;-75
2022/10/18 14:24:56;;;;;;;15.68;11.25;;;;;;;;;;5074281;28;20059;-74
2022/10/18 14:27:23;;;;;;;16.02;9.25;;;;;;;;;;5056334;28;20020;-74
2022/10/18 14:29:50;;;;;;;19.55;9.82;;;;;;;;;;5072607;28;20029;-74
2022/10/18 14:32:27;;;;;;;17.42;9.45;;;;;;;;;;5074026;28;20032;-77
2022/10/18 14:34:53;;;;;;;15.25;8.98;;;;;;;;;;5074225;28;20474;-74